sensor_id;sensor_type;location;lat;lon;timestamp;pressure;altitude;pressure_sealevel;temperature;humidity
804;BME280;25687;49.976;8.240;2023-02-03T00:00:34;101201.97;;;6.72;100.00
804;BME280;25687;49.976;8.240;2023-02-03T00:02:59;101208.88;;;6.68;100.00
804;BME280;25687;49.976;8.240;2023-02-03T00:05:24;101211.38;;;6.71;100.00
804;BME280;25687;49.976;8.240;2023-02-03T00:07:49;101216.50;;;6.70;100.00
804;BME280;25687;49.976;8.240;2023-02-03T00:10:15;101204.53;;;6.72;100.00
804;BME280;25687;49.976;8.240;2023-02-03T00:12:45;101189.09;;;6.76;100.00
804;BME280;25687;49.976;8.240;2023-02-03T00:15:11;101176.50;;;6.67;100.00
804;BME280;25687;49.976;8.240;2023-02-03T00:17:36;101155.22;;;6.67;100.00
804;BME280;25687;49.976;8.240;2023-02-03T00:20:01;101156.94;;;6.65;100.00
804;BME280;25687;49.976;8.240;2023-02-03T00:22:26;101152.75;;;6.62;100.00
804;BME280;25687;49.976;8.240;2023-02-03T00:24:53;101168.28;;;6.53;100.00
804;BME280;25687;49.976;8.240;2023-02-03T00:27:18;101161.53;;;6.50;100.00
804;BME280;25687;49.976;8.240;2023-02-03T00:29:43;101161.66;;;6.42;100.00
804;BME280;25687;49.976;8.240;2023-02-03T00:32:08;101173.72;;;6.36;100.00
804;BME280;25687;49.976;8.240;2023-02-03T00:34:34;101166.16;;;6.31;100.00
804;BME280;25687;49.976;8.240;2023-02-03T00:36:59;101175.56;;;6.29;100.00
804;BME280;25687;49.976;8.240;2023-02-03T00:39:24;101176.44;;;6.28;100.00
804;BME280;25687;49.976;8.240;2023-02-03T00:41:49;101163.75;;;6.23;100.00
804;BME280;25687;49.976;8.240;2023-02-03T00:44:14;101163.03;;;6.17;100.00
804;BME280;25687;49.976;8.240;2023-02-03T00:46:40;101163.81;;;6.20;100.00
804;BME280;25687;49.976;8.240;2023-02-03T00:49:05;101165.59;;;6.17;100.00
804;BME280;25687;49.976;8.240;2023-02-03T00:51:31;101169.75;;;6.21;100.00
804;BME280;25687;49.976;8.240;2023-02-03T00:53:56;101177.47;;;6.19;100.00
804;BME280;25687;49.976;8.240;2023-02-03T00:56:21;101174.16;;;6.14;100.00
804;BME280;25687;49.976;8.240;2023-02-03T00:58:47;101172.47;;;6.11;100.00
804;BME280;25687;49.976;8.240;2023-02-03T01:01:12;101157.03;;;6.19;100.00
804;BME280;25687;49.976;8.240;2023-02-03T01:03:37;101151.97;;;6.16;100.00
804;BME280;25687;49.976;8.240;2023-02-03T01:06:13;101144.16;;;6.22;100.00
804;BME280;25687;49.976;8.240;2023-02-03T01:08:38;101133.09;;;6.23;100.00
804;BME280;25687;49.976;8.240;2023-02-03T01:11:11;101115.81;;;6.35;100.00
804;BME280;25687;49.976;8.240;2023-02-03T01:13:37;101118.34;;;6.36;100.00
804;BME280;25687;49.976;8.240;2023-02-03T01:16:05;101107.97;;;6.42;100.00
804;BME280;25687;49.976;8.240;2023-02-03T01:18:30;101120.81;;;6.41;100.00
804;BME280;25687;49.976;8.240;2023-02-03T01:20:56;101134.41;;;6.43;100.00
804;BME280;25687;49.976;8.240;2023-02-03T01:23:21;101121.59;;;6.44;100.00
804;BME280;25687;49.976;8.240;2023-02-03T01:25:46;101117.41;;;6.40;100.00
804;BME280;25687;49.976;8.240;2023-02-03T01:28:11;101119.09;;;6.41;100.00
804;BME280;25687;49.976;8.240;2023-02-03T01:30:37;101108.84;;;6.43;100.00
804;BME280;25687;49.976;8.240;2023-02-03T01:33:02;101120.75;;;6.44;100.00
804;BME280;25687;49.976;8.240;2023-02-03T01:35:27;101125.13;;;6.37;100.00
804;BME280;25687;49.976;8.240;2023-02-03T01:37:53;101116.50;;;6.43;100.00
804;BME280;25687;49.976;8.240;2023-02-03T01:40:18;101123.19;;;6.50;100.00
804;BME280;25687;49.976;8.240;2023-02-03T01:42:43;101124.09;;;6.48;100.00
804;BME280;25687;49.976;8.240;2023-02-03T01:45:09;101131.56;;;6.57;100.00
804;BME280;25687;49.976;8.240;2023-02-03T01:47:35;101124.56;;;6.63;100.00
804;BME280;25687;49.976;8.240;2023-02-03T01:53:09;101121.97;;;6.67;100.00
804;BME280;25687;49.976;8.240;2023-02-03T01:55:42;101113.34;;;6.72;100.00
804;BME280;25687;49.976;8.240;2023-02-03T01:58:14;101110.00;;;6.67;100.00
804;BME280;25687;49.976;8.240;2023-02-03T02:00:40;101103.78;;;6.79;100.00
804;BME280;25687;49.976;8.240;2023-02-03T02:03:06;101103.84;;;6.76;100.00
804;BME280;25687;49.976;8.240;2023-02-03T02:05:37;101092.75;;;6.77;100.00
804;BME280;25687;49.976;8.240;2023-02-03T02:08:04;101106.22;;;6.85;100.00
804;BME280;25687;49.976;8.240;2023-02-03T02:10:31;101104.63;;;6.81;100.00
804;BME280;25687;49.976;8.240;2023-02-03T02:12:57;101093.47;;;6.82;100.00
804;BME280;25687;49.976;8.240;2023-02-03T02:15:25;101093.34;;;6.88;100.00
804;BME280;25687;49.976;8.240;2023-02-03T02:18:37;101091.00;;;6.79;100.00
804;BME280;25687;49.976;8.240;2023-02-03T02:26:05;101107.44;;;6.69;100.00
804;BME280;25687;49.976;8.240;2023-02-03T02:28:48;101121.69;;;6.79;100.00
804;BME280;25687;49.976;8.240;2023-02-03T02:34:14;101133.56;;;6.82;100.00
804;BME280;25687;49.976;8.240;2023-02-03T02:39:35;101115.75;;;6.77;100.00
804;BME280;25687;49.976;8.240;2023-02-03T02:42:06;101116.41;;;6.87;100.00
804;BME280;25687;49.976;8.240;2023-02-03T02:44:33;101127.59;;;6.83;100.00
804;BME280;25687;49.976;8.240;2023-02-03T02:47:00;101125.84;;;6.85;100.00
804;BME280;25687;49.976;8.240;2023-02-03T02:49:34;101139.28;;;6.93;100.00
804;BME280;25687;49.976;8.240;2023-02-03T02:52:03;101149.75;;;6.84;100.00
804;BME280;25687;49.976;8.240;2023-02-03T02:54:29;101160.88;;;6.81;100.00
804;BME280;25687;49.976;8.240;2023-02-03T02:56:56;101161.81;;;6.77;100.00
804;BME280;25687;49.976;8.240;2023-02-03T02:59:23;101161.06;;;6.72;100.00
804;BME280;25687;49.976;8.240;2023-02-03T03:01:48;101163.56;;;6.73;100.00
804;BME280;25687;49.976;8.240;2023-02-03T03:04:15;101169.59;;;6.71;100.00
804;BME280;25687;49.976;8.240;2023-02-03T03:11:46;101146.53;;;6.74;100.00
804;BME280;25687;49.976;8.240;2023-02-03T03:14:14;101135.44;;;6.75;100.00
804;BME280;25687;49.976;8.240;2023-02-03T03:16:42;101130.31;;;6.75;100.00
804;BME280;25687;49.976;8.240;2023-02-03T03:19:11;101129.47;;;6.74;100.00
804;BME280;25687;49.976;8.240;2023-02-03T03:21:47;101122.59;;;6.76;100.00
804;BME280;25687;49.976;8.240;2023-02-03T03:24:14;101124.34;;;6.74;100.00
804;BME280;25687;49.976;8.240;2023-02-03T03:29:29;101114.25;;;6.68;100.00
804;BME280;25687;49.976;8.240;2023-02-03T03:31:59;101109.91;;;6.72;100.00
804;BME280;25687;49.976;8.240;2023-02-03T03:34:24;101114.84;;;6.79;100.00
804;BME280;25687;49.976;8.240;2023-02-03T03:36:53;101115.66;;;6.82;100.00
804;BME280;25687;49.976;8.240;2023-02-03T03:39:23;101099.22;;;6.92;100.00
804;BME280;25687;49.976;8.240;2023-02-03T03:42:25;101097.72;;;6.83;100.00
804;BME280;25687;49.976;8.240;2023-02-03T03:45:26;101088.97;;;6.93;100.00
804;BME280;25687;49.976;8.240;2023-02-03T03:50:00;101101.97;;;6.84;100.00
804;BME280;25687;49.976;8.240;2023-02-03T03:52:28;101112.19;;;6.84;100.00
804;BME280;25687;49.976;8.240;2023-02-03T03:54:54;101119.81;;;6.87;100.00
804;BME280;25687;49.976;8.240;2023-02-03T03:57:35;101114.84;;;6.81;100.00
804;BME280;25687;49.976;8.240;2023-02-03T04:00:02;101103.78;;;6.79;100.00
804;BME280;25687;49.976;8.240;2023-02-03T04:02:29;101093.59;;;6.77;100.00
804;BME280;25687;49.976;8.240;2023-02-03T04:04:56;101086.84;;;6.75;100.00
804;BME280;25687;49.976;8.240;2023-02-03T04:07:23;101089.41;;;6.73;100.00
804;BME280;25687;49.976;8.240;2023-02-03T04:09:48;101095.06;;;6.88;100.00
804;BME280;25687;49.976;8.240;2023-02-03T04:12:23;101089.13;;;6.86;100.00
804;BME280;25687;49.976;8.240;2023-02-03T04:14:48;101100.28;;;6.85;100.00
804;BME280;25687;49.976;8.240;2023-02-03T04:17:13;101091.88;;;6.78;100.00
804;BME280;25687;49.976;8.240;2023-02-03T04:19:39;101098.69;;;6.79;100.00
804;BME280;25687;49.976;8.240;2023-02-03T04:22:04;101102.97;;;6.78;100.00
804;BME280;25687;49.976;8.240;2023-02-03T04:24:29;101107.84;;;6.88;100.00
804;BME280;25687;49.976;8.240;2023-02-03T04:26:54;101106.91;;;6.92;100.00
804;BME280;25687;49.976;8.240;2023-02-03T04:29:19;101102.59;;;6.94;100.00
804;BME280;25687;49.976;8.240;2023-02-03T04:31:45;101099.16;;;6.95;100.00
804;BME280;25687;49.976;8.240;2023-02-03T04:34:10;101099.13;;;6.97;100.00
804;BME280;25687;49.976;8.240;2023-02-03T04:36:35;101095.97;;;6.85;100.00
804;BME280;25687;49.976;8.240;2023-02-03T04:39:00;101089.03;;;6.90;100.00
804;BME280;25687;49.976;8.240;2023-02-03T04:41:25;101094.09;;;6.93;100.00
804;BME280;25687;49.976;8.240;2023-02-03T04:43:51;101084.94;;;6.85;100.00
804;BME280;25687;49.976;8.240;2023-02-03T04:46:16;101077.94;;;6.91;100.00
804;BME280;25687;49.976;8.240;2023-02-03T04:48:42;101080.56;;;6.88;100.00
804;BME280;25687;49.976;8.240;2023-02-03T04:51:08;101101.09;;;6.85;100.00
804;BME280;25687;49.976;8.240;2023-02-03T04:53:33;101115.72;;;6.80;100.00
804;BME280;25687;49.976;8.240;2023-02-03T04:55:58;101102.78;;;6.86;100.00
804;BME280;25687;49.976;8.240;2023-02-03T04:58:24;101108.00;;;6.82;100.00
804;BME280;25687;49.976;8.240;2023-02-03T05:00:50;101110.59;;;6.80;100.00
804;BME280;25687;49.976;8.240;2023-02-03T05:03:16;101120.66;;;6.88;100.00
804;BME280;25687;49.976;8.240;2023-02-03T05:05:41;101117.31;;;6.84;100.00
804;BME280;25687;49.976;8.240;2023-02-03T05:08:06;101113.94;;;6.82;100.00
804;BME280;25687;49.976;8.240;2023-02-03T05:10:31;101104.44;;;6.89;100.00
804;BME280;25687;49.976;8.240;2023-02-03T05:12:56;101076.34;;;6.87;100.00
804;BME280;25687;49.976;8.240;2023-02-03T05:15:22;101087.31;;;6.92;100.00
804;BME280;25687;49.976;8.240;2023-02-03T05:17:47;101070.44;;;6.84;100.00
804;BME280;25687;49.976;8.240;2023-02-03T05:20:12;101080.44;;;6.93;100.00
804;BME280;25687;49.976;8.240;2023-02-03T05:22:37;101083.16;;;6.87;100.00
804;BME280;25687;49.976;8.240;2023-02-03T05:25:03;101072.16;;;6.83;100.00
804;BME280;25687;49.976;8.240;2023-02-03T05:27:28;101079.88;;;6.82;100.00
804;BME280;25687;49.976;8.240;2023-02-03T05:29:54;101084.16;;;6.81;100.00
804;BME280;25687;49.976;8.240;2023-02-03T05:32:19;101059.41;;;6.82;100.00
804;BME280;25687;49.976;8.240;2023-02-03T05:34:44;101079.97;;;6.77;100.00
804;BME280;25687;49.976;8.240;2023-02-03T05:37:09;101085.06;;;6.78;100.00
804;BME280;25687;49.976;8.240;2023-02-03T05:39:34;101070.41;;;6.85;100.00
804;BME280;25687;49.976;8.240;2023-02-03T05:41:59;101056.16;;;6.75;100.00
804;BME280;25687;49.976;8.240;2023-02-03T05:44:27;101045.94;;;6.75;100.00
804;BME280;25687;49.976;8.240;2023-02-03T05:46:53;101058.53;;;6.83;100.00
804;BME280;25687;49.976;8.240;2023-02-03T05:49:19;101046.63;;;6.82;100.00
804;BME280;25687;49.976;8.240;2023-02-03T05:51:44;101060.94;;;6.89;100.00
804;BME280;25687;49.976;8.240;2023-02-03T05:54:10;101066.13;;;6.86;100.00
804;BME280;25687;49.976;8.240;2023-02-03T05:56:35;101060.03;;;6.91;100.00
804;BME280;25687;49.976;8.240;2023-02-03T05:59:00;101070.84;;;7.03;100.00
804;BME280;25687;49.976;8.240;2023-02-03T06:01:26;101060.81;;;6.95;100.00
804;BME280;25687;49.976;8.240;2023-02-03T06:03:51;101060.06;;;6.90;100.00
804;BME280;25687;49.976;8.240;2023-02-03T06:06:16;101059.25;;;6.88;100.00
804;BME280;25687;49.976;8.240;2023-02-03T06:08:42;101054.28;;;6.82;100.00
804;BME280;25687;49.976;8.240;2023-02-03T06:11:07;101050.88;;;6.83;100.00
804;BME280;25687;49.976;8.240;2023-02-03T06:13:32;101054.03;;;6.92;100.00
804;BME280;25687;49.976;8.240;2023-02-03T06:15:57;101047.34;;;6.87;100.00
804;BME280;25687;49.976;8.240;2023-02-03T06:18:23;101052.50;;;6.85;100.00
804;BME280;25687;49.976;8.240;2023-02-03T06:20:48;101051.59;;;6.88;100.00
804;BME280;25687;49.976;8.240;2023-02-03T06:23:14;101058.53;;;6.83;100.00
804;BME280;25687;49.976;8.240;2023-02-03T06:25:41;101055.03;;;6.87;100.00
804;BME280;25687;49.976;8.240;2023-02-03T06:28:06;101051.00;;;6.76;100.00
804;BME280;25687;49.976;8.240;2023-02-03T06:30:31;101057.72;;;6.81;100.00
804;BME280;25687;49.976;8.240;2023-02-03T06:32:56;101062.84;;;6.81;100.00
804;BME280;25687;49.976;8.240;2023-02-03T06:35:21;101053.47;;;6.79;100.00
804;BME280;25687;49.976;8.240;2023-02-03T06:37:46;101058.34;;;6.90;100.00
804;BME280;25687;49.976;8.240;2023-02-03T06:40:12;101054.16;;;6.88;100.00
804;BME280;25687;49.976;8.240;2023-02-03T06:42:37;101058.53;;;6.83;100.00
804;BME280;25687;49.976;8.240;2023-02-03T06:45:02;101070.19;;;6.94;100.00
804;BME280;25687;49.976;8.240;2023-02-03T06:47:28;101068.38;;;7.00;100.00
804;BME280;25687;49.976;8.240;2023-02-03T06:49:53;101073.50;;;7.00;100.00
804;BME280;25687;49.976;8.240;2023-02-03T06:52:18;101082.81;;;7.01;100.00
804;BME280;25687;49.976;8.240;2023-02-03T06:54:43;101069.09;;;7.05;100.00
804;BME280;25687;49.976;8.240;2023-02-03T06:57:09;101085.31;;;7.04;100.00
804;BME280;25687;49.976;8.240;2023-02-03T06:59:34;101087.16;;;6.99;100.00
804;BME280;25687;49.976;8.240;2023-02-03T07:01:59;101081.88;;;7.05;100.00
804;BME280;25687;49.976;8.240;2023-02-03T07:04:24;101085.22;;;7.08;100.00
804;BME280;25687;49.976;8.240;2023-02-03T07:06:54;101097.00;;;7.16;100.00
804;BME280;25687;49.976;8.240;2023-02-03T07:09:19;101085.19;;;7.10;100.00
804;BME280;25687;49.976;8.240;2023-02-03T07:11:44;101092.69;;;7.16;100.00
804;BME280;25687;49.976;8.240;2023-02-03T07:14:09;101095.16;;;7.19;100.00
804;BME280;25687;49.976;8.240;2023-02-03T07:16:34;101106.31;;;7.17;100.00
804;BME280;25687;49.976;8.240;2023-02-03T07:19:01;101108.06;;;7.16;100.00
804;BME280;25687;49.976;8.240;2023-02-03T07:21:26;101096.03;;;7.20;100.00
804;BME280;25687;49.976;8.240;2023-02-03T07:23:51;101105.31;;;7.24;100.00
804;BME280;25687;49.976;8.240;2023-02-03T07:26:17;101112.97;;;7.24;100.00
804;BME280;25687;49.976;8.240;2023-02-03T07:28:42;101105.16;;;7.30;100.00
804;BME280;25687;49.976;8.240;2023-02-03T07:31:08;101113.75;;;7.27;100.00
804;BME280;25687;49.976;8.240;2023-02-03T07:33:34;101111.22;;;7.26;100.00
804;BME280;25687;49.976;8.240;2023-02-03T07:35:59;101088.50;;;7.14;100.00
804;BME280;25687;49.976;8.240;2023-02-03T07:38:25;101094.50;;;7.13;100.00
804;BME280;25687;49.976;8.240;2023-02-03T07:40:51;101101.97;;;7.20;100.00
804;BME280;25687;49.976;8.240;2023-02-03T07:43:16;101101.22;;;7.17;100.00
804;BME280;25687;49.976;8.240;2023-02-03T07:45:41;101105.41;;;7.21;100.00
804;BME280;25687;49.976;8.240;2023-02-03T07:48:06;101102.69;;;7.25;100.00
804;BME280;25687;49.976;8.240;2023-02-03T07:50:32;101094.84;;;7.33;100.00
804;BME280;25687;49.976;8.240;2023-02-03T07:52:57;101090.34;;;7.41;100.00
804;BME280;25687;49.976;8.240;2023-02-03T07:55:22;101091.22;;;7.40;100.00
804;BME280;25687;49.976;8.240;2023-02-03T07:57:47;101095.72;;;7.32;100.00
804;BME280;25687;49.976;8.240;2023-02-03T08:00:13;101093.78;;;7.42;100.00
804;BME280;25687;49.976;8.240;2023-02-03T08:02:39;101122.63;;;7.49;100.00
804;BME280;25687;49.976;8.240;2023-02-03T08:05:05;101116.41;;;7.57;100.00
804;BME280;25687;49.976;8.240;2023-02-03T08:07:30;101116.13;;;7.68;100.00
804;BME280;25687;49.976;8.240;2023-02-03T08:09:55;101128.13;;;7.66;100.00
804;BME280;25687;49.976;8.240;2023-02-03T08:12:20;101133.50;;;7.57;100.00
804;BME280;25687;49.976;8.240;2023-02-03T08:14:46;101124.03;;;7.61;100.00
804;BME280;25687;49.976;8.240;2023-02-03T08:17:11;101118.19;;;7.55;100.00
804;BME280;25687;49.976;8.240;2023-02-03T08:19:36;101111.09;;;7.65;100.00
804;BME280;25687;49.976;8.240;2023-02-03T08:22:01;101101.53;;;7.72;100.00
804;BME280;25687;49.976;8.240;2023-02-03T08:24:26;101094.56;;;7.77;100.00
804;BME280;25687;49.976;8.240;2023-02-03T08:26:51;101103.06;;;7.79;100.00
804;BME280;25687;49.976;8.240;2023-02-03T08:29:18;101110.59;;;7.84;100.00
804;BME280;25687;49.976;8.240;2023-02-03T08:31:43;101100.94;;;7.95;100.00
804;BME280;25687;49.976;8.240;2023-02-03T08:34:08;101102.56;;;7.98;100.00
804;BME280;25687;49.976;8.240;2023-02-03T08:36:33;101095.41;;;8.09;100.00
804;BME280;25687;49.976;8.240;2023-02-03T08:39:01;101098.91;;;8.06;100.00
804;BME280;25687;49.976;8.240;2023-02-03T08:41:26;101106.53;;;8.08;100.00
804;BME280;25687;49.976;8.240;2023-02-03T08:43:51;101097.78;;;8.15;100.00
804;BME280;25687;49.976;8.240;2023-02-03T08:46:18;101111.03;;;8.30;100.00
804;BME280;25687;49.976;8.240;2023-02-03T08:48:43;101091.16;;;8.38;100.00
804;BME280;25687;49.976;8.240;2023-02-03T08:51:09;101103.03;;;8.40;100.00
804;BME280;25687;49.976;8.240;2023-02-03T08:53:35;101095.03;;;8.53;100.00
804;BME280;25687;49.976;8.240;2023-02-03T08:56:03;101079.84;;;8.45;100.00
804;BME280;25687;49.976;8.240;2023-02-03T08:58:28;101090.34;;;8.37;100.00
804;BME280;25687;49.976;8.240;2023-02-03T09:00:53;101084.44;;;8.34;100.00
804;BME280;25687;49.976;8.240;2023-02-03T09:03:19;101095.22;;;8.45;100.00
804;BME280;25687;49.976;8.240;2023-02-03T09:05:44;101085.91;;;8.43;100.00
804;BME280;25687;49.976;8.240;2023-02-03T09:08:10;101079.16;;;8.40;100.00
804;BME280;25687;49.976;8.240;2023-02-03T09:10:35;101090.28;;;8.39;100.00
804;BME280;25687;49.976;8.240;2023-02-03T09:13:00;101089.41;;;8.40;100.00
804;BME280;25687;49.976;8.240;2023-02-03T09:15:25;101093.84;;;8.33;100.00
804;BME280;25687;49.976;8.240;2023-02-03T09:17:51;101082.47;;;8.42;100.00
804;BME280;25687;49.976;8.240;2023-02-03T09:20:16;101083.53;;;8.36;100.00
804;BME280;25687;49.976;8.240;2023-02-03T09:22:41;101064.53;;;8.42;100.00
804;BME280;25687;49.976;8.240;2023-02-03T09:25:07;101071.41;;;8.42;100.00
804;BME280;25687;49.976;8.240;2023-02-03T09:27:32;101087.50;;;8.47;100.00
804;BME280;25687;49.976;8.240;2023-02-03T09:29:57;101095.13;;;8.50;100.00
804;BME280;25687;49.976;8.240;2023-02-03T09:32:22;101088.13;;;8.55;100.00
804;BME280;25687;49.976;8.240;2023-02-03T09:34:48;101080.69;;;8.47;100.00
804;BME280;25687;49.976;8.240;2023-02-03T09:37:13;101085.09;;;8.40;100.00
804;BME280;25687;49.976;8.240;2023-02-03T09:39:38;101075.53;;;8.47;100.00
804;BME280;25687;49.976;8.240;2023-02-03T09:42:15;101079.75;;;8.50;100.00
804;BME280;25687;49.976;8.240;2023-02-03T09:47:15;101095.69;;;8.60;100.00
804;BME280;25687;49.976;8.240;2023-02-03T09:49:44;101078.56;;;8.60;100.00
804;BME280;25687;49.976;8.240;2023-02-03T09:52:24;101074.88;;;8.69;100.00
804;BME280;25687;49.976;8.240;2023-02-03T09:57:26;101061.59;;;8.83;100.00
804;BME280;25687;49.976;8.240;2023-02-03T09:59:52;101060.81;;;9.08;100.00
804;BME280;25687;49.976;8.240;2023-02-03T10:04:49;101055.19;;;8.96;100.00
804;BME280;25687;49.976;8.240;2023-02-03T10:07:20;101061.97;;;8.99;100.00
804;BME280;25687;49.976;8.240;2023-02-03T10:12:35;101058.22;;;8.82;100.00
804;BME280;25687;49.976;8.240;2023-02-03T10:17:33;101040.53;;;9.00;100.00
804;BME280;25687;49.976;8.240;2023-02-03T10:22:29;101028.25;;;9.10;100.00
804;BME280;25687;49.976;8.240;2023-02-03T10:24:56;101032.81;;;9.27;100.00
804;BME280;25687;49.976;8.240;2023-02-03T10:27:24;101026.34;;;9.40;100.00
804;BME280;25687;49.976;8.240;2023-02-03T10:30:23;101027.00;;;9.47;100.00
804;BME280;25687;49.976;8.240;2023-02-03T10:32:41;101023.47;;;9.49;100.00
804;BME280;25687;49.976;8.240;2023-02-03T10:35:12;101025.22;;;9.49;100.00
804;BME280;25687;49.976;8.240;2023-02-03T10:37:40;101038.94;;;9.48;100.00
804;BME280;25687;49.976;8.240;2023-02-03T10:40:10;101038.09;;;9.47;100.00
804;BME280;25687;49.976;8.240;2023-02-03T10:42:36;101045.22;;;9.64;100.00
804;BME280;25687;49.976;8.240;2023-02-03T10:45:20;101041.41;;;9.75;100.00
804;BME280;25687;49.976;8.240;2023-02-03T10:47:46;101046.03;;;9.65;100.00
804;BME280;25687;49.976;8.240;2023-02-03T10:50:14;101047.91;;;9.61;100.00
804;BME280;25687;49.976;8.240;2023-02-03T10:52:40;101048.34;;;9.49;100.00
804;BME280;25687;49.976;8.240;2023-02-03T10:55:06;101054.16;;;9.52;100.00
804;BME280;25687;49.976;8.240;2023-02-03T10:57:34;101056.47;;;9.36;100.00
804;BME280;25687;49.976;8.240;2023-02-03T11:00:07;101055.38;;;9.42;100.00
804;BME280;25687;49.976;8.240;2023-02-03T11:02:32;101067.28;;;9.45;100.00
804;BME280;25687;49.976;8.240;2023-02-03T11:05:09;101069.13;;;9.41;100.00
804;BME280;25687;49.976;8.240;2023-02-03T11:07:34;101067.69;;;9.32;100.00
804;BME280;25687;49.976;8.240;2023-02-03T11:09:59;101069.84;;;9.19;100.00
804;BME280;25687;49.976;8.240;2023-02-03T11:12:25;101074.38;;;9.11;100.00
804;BME280;25687;49.976;8.240;2023-02-03T11:14:51;101075.94;;;9.17;100.00
804;BME280;25687;49.976;8.240;2023-02-03T11:17:17;101081.06;;;9.17;100.00
804;BME280;25687;49.976;8.240;2023-02-03T11:19:44;101074.25;;;9.16;100.00
804;BME280;25687;49.976;8.240;2023-02-03T11:22:10;101075.28;;;9.10;100.00
804;BME280;25687;49.976;8.240;2023-02-03T11:24:37;101065.00;;;9.10;100.00
804;BME280;25687;49.976;8.240;2023-02-03T11:27:04;101058.31;;;9.06;100.00
804;BME280;25687;49.976;8.240;2023-02-03T11:29:32;101051.97;;;9.16;100.00
804;BME280;25687;49.976;8.240;2023-02-03T11:32:41;101039.41;;;9.09;100.00
804;BME280;25687;49.976;8.240;2023-02-03T11:35:03;101040.88;;;9.16;100.00
804;BME280;25687;49.976;8.240;2023-02-03T11:39:56;101028.38;;;9.32;100.00
804;BME280;25687;49.976;8.240;2023-02-03T11:42:37;101016.94;;;9.41;100.00
804;BME280;25687;49.976;8.240;2023-02-03T11:46:03;101011.66;;;9.45;100.00
804;BME280;25687;49.976;8.240;2023-02-03T11:53:26;100986.84;;;9.92;100.00
804;BME280;25687;49.976;8.240;2023-02-03T12:01:26;101006.28;;;9.75;100.00
804;BME280;25687;49.976;8.240;2023-02-03T12:09:12;101004.31;;;9.34;100.00
804;BME280;25687;49.976;8.240;2023-02-03T12:16:44;100986.81;;;9.20;100.00
804;BME280;25687;49.976;8.240;2023-02-03T12:19:19;100985.88;;;9.23;100.00
804;BME280;25687;49.976;8.240;2023-02-03T12:21:51;100977.56;;;9.40;100.00
804;BME280;25687;49.976;8.240;2023-02-03T12:24:33;100986.44;;;9.31;100.00
804;BME280;25687;49.976;8.240;2023-02-03T12:29:40;100978.56;;;9.36;100.00
804;BME280;25687;49.976;8.240;2023-02-03T12:32:17;100966.69;;;9.33;100.00
804;BME280;25687;49.976;8.240;2023-02-03T12:39:59;100957.44;;;9.28;100.00
804;BME280;25687;49.976;8.240;2023-02-03T12:42:29;100950.38;;;9.34;100.00
804;BME280;25687;49.976;8.240;2023-02-03T12:45:00;100954.50;;;9.39;100.00
804;BME280;25687;49.976;8.240;2023-02-03T12:49:56;100962.50;;;9.31;100.00
804;BME280;25687;49.976;8.240;2023-02-03T12:52:31;100968.88;;;9.19;100.00
804;BME280;25687;49.976;8.240;2023-02-03T12:55:02;100980.06;;;9.18;100.00
804;BME280;25687;49.976;8.240;2023-02-03T12:58:05;100979.34;;;9.14;100.00
804;BME280;25687;49.976;8.240;2023-02-03T13:00:38;100986.56;;;9.03;100.00
804;BME280;25687;49.976;8.240;2023-02-03T13:03:23;100979.97;;;8.96;100.00
804;BME280;25687;49.976;8.240;2023-02-03T13:08:42;100969.84;;;8.91;100.00
804;BME280;25687;49.976;8.240;2023-02-03T13:13:39;100967.41;;;8.86;100.00
804;BME280;25687;49.976;8.240;2023-02-03T13:16:07;100964.91;;;8.85;100.00
804;BME280;25687;49.976;8.240;2023-02-03T13:18:34;100965.91;;;8.81;100.00
804;BME280;25687;49.976;8.240;2023-02-03T13:21:00;100956.34;;;8.86;100.00
804;BME280;25687;49.976;8.240;2023-02-03T13:23:26;100955.78;;;9.01;100.00
804;BME280;25687;49.976;8.240;2023-02-03T13:25:55;100942.22;;;8.98;100.00
804;BME280;25687;49.976;8.240;2023-02-03T13:29:07;100932.66;;;9.03;100.00
804;BME280;25687;49.976;8.240;2023-02-03T13:39:12;100942.00;;;9.06;100.00
804;BME280;25687;49.976;8.240;2023-02-03T13:41:47;100941.66;;;9.15;100.00
804;BME280;25687;49.976;8.240;2023-02-03T13:44:15;100940.31;;;9.04;100.00
804;BME280;25687;49.976;8.240;2023-02-03T13:46:44;100948.84;;;9.05;100.00
804;BME280;25687;49.976;8.240;2023-02-03T13:49:16;100943.50;;;9.11;100.00
804;BME280;25687;49.976;8.240;2023-02-03T13:51:45;100936.22;;;8.99;100.00
804;BME280;25687;49.976;8.240;2023-02-03T13:54:13;100935.19;;;9.04;100.00
804;BME280;25687;49.976;8.240;2023-02-03T13:56:40;100937.06;;;8.99;100.00
804;BME280;25687;49.976;8.240;2023-02-03T14:01:37;100936.84;;;8.80;100.00
804;BME280;25687;49.976;8.240;2023-02-03T14:04:04;100936.75;;;8.83;100.00
804;BME280;25687;49.976;8.240;2023-02-03T14:09:47;100951.88;;;8.66;100.00
804;BME280;25687;49.976;8.240;2023-02-03T14:11:50;100947.28;;;8.49;100.00
804;BME280;25687;49.976;8.240;2023-02-03T14:21:54;100957.53;;;8.20;100.00
804;BME280;25687;49.976;8.240;2023-02-03T14:24:21;100969.53;;;8.18;100.00
804;BME280;25687;49.976;8.240;2023-02-03T14:26:47;100973.03;;;8.16;100.00
804;BME280;25687;49.976;8.240;2023-02-03T14:29:27;100969.78;;;8.11;100.00
804;BME280;25687;49.976;8.240;2023-02-03T14:31:59;100974.03;;;8.12;100.00
804;BME280;25687;49.976;8.240;2023-02-03T14:53:39;101002.72;;;8.23;100.00
804;BME280;25687;49.976;8.240;2023-02-03T14:56:23;101002.59;;;8.28;100.00
804;BME280;25687;49.976;8.240;2023-02-03T14:58:52;101001.91;;;8.22;100.00
804;BME280;25687;49.976;8.240;2023-02-03T15:01:26;100997.41;;;8.29;100.00
804;BME280;25687;49.976;8.240;2023-02-03T15:06:39;100959.59;;;8.36;100.00
804;BME280;25687;49.976;8.240;2023-02-03T15:09:22;100960.16;;;8.46;100.00
804;BME280;25687;49.976;8.240;2023-02-03T15:11:48;100982.59;;;8.39;100.00
804;BME280;25687;49.976;8.240;2023-02-03T15:16:39;100979.53;;;8.56;100.00